createdAt,value
2024-03-11T00:02:02.574Z,14.22
2024-03-11T00:04:30.051Z,14.25
2024-03-11T00:06:58.871Z,14.24
2024-03-11T00:09:34.483Z,14.16
2024-03-11T00:12:01.697Z,14.22
2024-03-11T00:14:31.257Z,14.20
2024-03-11T00:16:58.911Z,14.20
2024-03-11T00:19:27.300Z,14.19
2024-03-11T00:21:57.885Z,14.09
2024-03-11T00:24:25.426Z,14.12
2024-03-11T00:26:52.692Z,14.12
2024-03-11T00:29:20.560Z,14.10
2024-03-11T00:31:47.293Z,14.04
2024-03-11T00:34:18.273Z,14.03
2024-03-11T00:36:49.227Z,14.01
2024-03-11T00:39:16.866Z,14.02
2024-03-11T00:41:43.798Z,14.05
2024-03-11T00:44:10.734Z,14.00
2024-03-11T00:46:37.235Z,14.05
2024-03-11T00:49:06.567Z,14.02
2024-03-11T00:51:36.296Z,14.00
2024-03-11T00:54:02.898Z,14.00
2024-03-11T00:56:29.434Z,14.01
2024-03-11T00:58:55.922Z,13.96
2024-03-11T01:01:22.475Z,14.00
2024-03-11T01:03:49.005Z,13.99
2024-03-11T01:06:16.893Z,13.99
2024-03-11T01:08:43.585Z,13.95
2024-03-11T01:11:11.915Z,13.95
2024-03-11T01:13:38.866Z,13.90
2024-03-11T01:16:08.742Z,13.98
2024-03-11T01:18:35.287Z,13.96
2024-03-11T01:21:03.482Z,13.97
2024-03-11T01:23:30.106Z,13.94
2024-03-11T01:25:57.037Z,13.90
2024-03-11T01:28:23.545Z,13.92
2024-03-11T01:30:50.161Z,13.85
2024-03-11T01:33:16.903Z,13.85
2024-03-11T01:35:44.508Z,13.89
2024-03-11T01:38:11.566Z,13.85
2024-03-11T01:40:38.130Z,13.85
2024-03-11T01:43:05.810Z,13.78
2024-03-11T01:45:33.882Z,13.79
2024-03-11T01:48:01.689Z,13.74
2024-03-11T01:50:29.793Z,13.70
2024-03-11T01:52:57.463Z,13.72
2024-03-11T01:55:28.923Z,13.76
2024-03-11T01:57:56.724Z,13.75
2024-03-11T02:00:23.845Z,13.73
2024-03-11T02:02:55.939Z,13.70
2024-03-11T02:05:25.384Z,13.75
2024-03-11T02:08:00.918Z,13.73
2024-03-11T02:10:29.017Z,13.68
2024-03-11T02:12:57.393Z,13.72
2024-03-11T02:15:23.997Z,13.62
2024-03-11T02:17:50.832Z,13.67
2024-03-11T02:20:19.147Z,13.67
2024-03-11T02:22:50.997Z,13.68
2024-03-11T02:25:36.853Z,13.62
2024-03-11T02:28:06.435Z,13.64
2024-03-11T02:30:33.975Z,13.62
2024-03-11T02:33:00.685Z,13.62
2024-03-11T02:35:27.736Z,13.60
2024-03-11T02:37:54.329Z,13.59
2024-03-11T02:40:27.680Z,13.54
2024-03-11T02:42:58.172Z,13.56
2024-03-11T02:45:27.179Z,13.56
2024-03-11T02:47:54.213Z,13.54
2024-03-11T02:50:20.846Z,13.52
2024-03-11T02:52:47.747Z,13.51
2024-03-11T02:55:19.998Z,13.43
2024-03-11T02:57:49.746Z,13.46
2024-03-11T03:00:17.979Z,13.41
2024-03-11T03:02:44.721Z,13.42
2024-03-11T03:05:13.445Z,13.41
2024-03-11T03:07:40.540Z,13.39
2024-03-11T03:10:07.837Z,13.38
2024-03-11T03:12:34.623Z,13.42
2024-03-11T03:15:01.779Z,13.42
2024-03-11T03:17:28.317Z,13.44
2024-03-11T03:19:56.557Z,13.45
2024-03-11T03:22:23.082Z,13.47
2024-03-11T03:24:51.202Z,13.43
2024-03-11T03:27:17.942Z,13.46
2024-03-11T03:29:45.739Z,13.47
2024-03-11T03:32:13.362Z,13.40
2024-03-11T03:34:40.397Z,13.45
2024-03-11T03:37:07.110Z,13.45
2024-03-11T03:39:35.110Z,13.45
2024-03-11T03:42:01.747Z,13.46
2024-03-11T03:44:28.249Z,13.40
2024-03-11T03:46:56.590Z,13.38
2024-03-11T03:49:23.075Z,13.46
2024-03-11T03:51:49.536Z,13.44
2024-03-11T03:54:18.926Z,13.44
2024-03-11T03:56:46.453Z,13.43
2024-03-11T03:59:13.162Z,13.42
2024-03-11T04:01:39.745Z,13.44
2024-03-11T04:04:06.258Z,13.38
2024-03-11T04:06:33.556Z,13.39
2024-03-11T04:09:00.031Z,13.33
2024-03-11T04:11:28.266Z,13.38
2024-03-11T04:13:54.970Z,13.40
2024-03-11T04:16:21.765Z,13.34
2024-03-11T04:18:48.696Z,13.36
2024-03-11T04:21:17.238Z,13.41
2024-03-11T04:23:45.751Z,13.41
2024-03-11T04:26:12.606Z,13.39
2024-03-11T04:28:39.182Z,13.41
2024-03-11T04:31:06.220Z,13.40
2024-03-11T04:33:32.998Z,13.37
2024-03-11T04:35:59.840Z,13.38
2024-03-11T04:38:27.741Z,13.38
2024-03-11T04:40:54.302Z,13.36
2024-03-11T04:43:21.955Z,13.33
2024-03-11T04:45:48.466Z,13.34
2024-03-11T04:48:15.144Z,13.30
2024-03-11T04:50:43.986Z,13.31
2024-03-11T04:53:11.799Z,13.28
2024-03-11T04:55:38.627Z,13.32
2024-03-11T04:58:05.888Z,13.27
2024-03-11T05:00:33.573Z,13.31
2024-03-11T05:03:02.532Z,13.28
2024-03-11T05:05:36.108Z,13.29
2024-03-11T05:08:05.116Z,13.27
2024-03-11T05:10:32.268Z,13.23
2024-03-11T05:13:01.643Z,13.21
2024-03-11T05:15:28.644Z,13.26
2024-03-11T05:17:55.745Z,13.26
2024-03-11T05:20:22.626Z,13.26
2024-03-11T05:22:49.921Z,13.27
2024-03-11T05:25:16.825Z,13.25
2024-03-11T05:27:46.432Z,13.22
2024-03-11T05:30:13.251Z,13.20
2024-03-11T05:32:41.191Z,13.25
2024-03-11T05:35:08.252Z,13.22
2024-03-11T05:37:34.787Z,13.22
2024-03-11T05:40:02.415Z,13.20
2024-03-11T05:42:28.913Z,13.20
2024-03-11T05:44:59.987Z,13.16
2024-03-11T05:47:27.296Z,13.13
2024-03-11T05:49:55.433Z,13.19
2024-03-11T05:52:26.074Z,13.22
2024-03-11T05:54:54.368Z,13.20
2024-03-11T05:57:28.050Z,13.18
2024-03-11T05:59:54.970Z,13.19
2024-03-11T06:02:22.115Z,13.13
2024-03-11T06:04:49.065Z,13.20
2024-03-11T06:07:25.283Z,13.21
2024-03-11T06:09:52.963Z,13.16
2024-03-11T06:12:22.486Z,13.22
2024-03-11T06:14:50.007Z,13.27
2024-03-11T06:17:17.803Z,13.27
2024-03-11T06:19:45.838Z,13.25
2024-03-11T06:22:13.054Z,13.28
2024-03-11T06:24:39.924Z,13.28
2024-03-11T06:27:06.746Z,13.33
2024-03-11T06:29:33.523Z,13.36
2024-03-11T06:32:00.269Z,13.30
2024-03-11T06:34:28.749Z,13.32
2024-03-11T06:36:56.412Z,13.39
2024-03-11T06:39:23.020Z,13.38
2024-03-11T06:41:49.778Z,13.41
2024-03-11T06:44:21.290Z,13.46
2024-03-11T06:46:58.626Z,13.44
2024-03-11T06:49:26.008Z,13.50
2024-03-11T06:51:52.587Z,13.52
2024-03-11T06:54:19.242Z,13.55
2024-03-11T06:56:45.822Z,13.57
2024-03-11T06:59:12.496Z,13.59
2024-03-11T07:01:39.067Z,13.61
2024-03-11T07:04:05.731Z,13.63
2024-03-11T07:06:32.425Z,13.57
2024-03-11T07:08:58.909Z,13.58
2024-03-11T07:11:25.627Z,13.54
2024-03-11T07:13:52.564Z,13.64
2024-03-11T07:16:19.706Z,13.63
2024-03-11T07:18:47.546Z,13.73
2024-03-11T07:21:14.213Z,13.71
2024-03-11T07:23:40.812Z,13.75
2024-03-11T07:26:09.096Z,13.76
2024-03-11T07:28:35.621Z,13.75
2024-03-11T07:31:02.366Z,13.76
2024-03-11T07:33:29.366Z,13.75
2024-03-11T07:35:59.002Z,13.77
2024-03-11T07:38:27.179Z,13.79
2024-03-11T07:40:53.811Z,13.79
2024-03-11T07:43:20.337Z,13.71
2024-03-11T07:45:46.933Z,13.79
2024-03-11T07:48:16.421Z,13.74
2024-03-11T07:50:43.346Z,13.79
2024-03-11T07:53:09.983Z,13.79
2024-03-11T07:55:36.954Z,13.83
2024-03-11T07:58:04.039Z,13.86
2024-03-11T08:00:31.185Z,13.83
2024-03-11T08:02:59.502Z,13.83
2024-03-11T08:05:28.162Z,13.90
2024-03-11T08:07:54.964Z,13.91
2024-03-11T08:10:22.328Z,13.89
2024-03-11T08:12:49.542Z,13.93
2024-03-11T08:15:16.887Z,13.89
2024-03-11T08:17:47.754Z,13.93
2024-03-11T08:20:19.273Z,13.92
2024-03-11T08:22:48.713Z,13.95
2024-03-11T08:25:28.834Z,13.98
2024-03-11T08:27:55.847Z,13.93
2024-03-11T08:30:24.013Z,13.90
2024-03-11T08:32:54.412Z,13.95
2024-03-11T08:35:22.872Z,13.98
2024-03-11T08:37:51.084Z,13.95
2024-03-11T08:40:21.088Z,14.05
2024-03-11T08:42:54.485Z,14.02
2024-03-11T08:45:23.905Z,14.04
2024-03-11T08:47:51.559Z,14.10
2024-03-11T08:50:18.576Z,14.13
2024-03-11T08:52:47.241Z,14.13
2024-03-11T08:55:15.106Z,14.18
2024-03-11T08:57:44.501Z,14.21
2024-03-11T09:00:12.907Z,14.22
2024-03-11T09:02:40.420Z,14.23
2024-03-11T09:05:20.358Z,14.18
2024-03-11T09:07:48.744Z,14.14
2024-03-11T09:10:16.019Z,14.17
2024-03-11T09:12:43.910Z,14.24
2024-03-11T09:15:18.617Z,14.26
2024-03-11T09:17:49.710Z,14.27
2024-03-11T09:20:16.847Z,14.29
2024-03-11T09:22:47.146Z,14.42
2024-03-11T09:25:19.716Z,14.51
2024-03-11T09:27:49.983Z,14.55
2024-03-11T09:30:18.637Z,14.43
2024-03-11T09:32:47.510Z,14.53
2024-03-11T09:35:17.834Z,14.55
2024-03-11T09:37:46.010Z,14.54
2024-03-11T09:40:13.032Z,14.58
2024-03-11T09:42:40.370Z,14.60
2024-03-11T09:45:08.752Z,14.49
2024-03-11T09:47:37.289Z,14.62
2024-03-11T09:50:04.945Z,14.68
2024-03-11T09:52:34.315Z,14.73
2024-03-11T09:55:00.899Z,14.77
2024-03-11T09:57:27.986Z,14.84
2024-03-11T09:59:55.544Z,14.90
2024-03-11T10:02:24.892Z,14.93
2024-03-11T10:04:55.098Z,14.97
2024-03-11T10:07:24.303Z,14.91
2024-03-11T10:09:51.032Z,14.96
2024-03-11T10:12:20.310Z,15.00
2024-03-11T10:14:49.016Z,14.99
2024-03-11T10:17:28.015Z,15.16
2024-03-11T10:19:57.358Z,15.29
2024-03-11T10:22:25.277Z,15.36
2024-03-11T10:25:01.869Z,15.42
2024-03-11T10:27:33.114Z,15.36
2024-03-11T10:30:21.760Z,15.48
2024-03-11T10:32:56.523Z,15.49
2024-03-11T10:35:24.125Z,15.52
2024-03-11T10:37:55.623Z,15.54
2024-03-11T10:40:31.765Z,15.55
2024-03-11T10:43:02.562Z,15.63
2024-03-11T10:45:31.292Z,15.68
2024-03-11T10:48:10.666Z,15.74
2024-03-11T10:50:37.327Z,15.88
2024-03-11T10:53:08.160Z,15.94
2024-03-11T10:55:35.584Z,15.95
2024-03-11T10:58:04.312Z,15.99
2024-03-11T11:00:36.028Z,15.94
2024-03-11T11:03:13.844Z,15.92
2024-03-11T11:05:44.521Z,15.94
2024-03-11T11:08:14.038Z,15.90
2024-03-11T11:10:42.968Z,15.86
2024-03-11T11:13:09.961Z,15.77
2024-03-11T11:15:37.787Z,15.75
2024-03-11T11:18:14.621Z,15.75
2024-03-11T11:20:48.199Z,15.66
2024-03-11T11:23:26.617Z,15.71
2024-03-11T11:25:56.649Z,15.69
2024-03-11T11:28:40.910Z,15.71
2024-03-11T11:31:15.710Z,15.70
2024-03-11T11:33:57.750Z,15.68
2024-03-11T11:36:33.611Z,15.68
2024-03-11T11:39:15.907Z,15.69
2024-03-11T11:41:46.611Z,15.68
2024-03-11T11:44:33.222Z,15.71
2024-03-11T11:47:06.425Z,15.67
2024-03-11T11:49:35.887Z,15.66
2024-03-11T11:52:03.603Z,15.63
2024-03-11T11:54:36.294Z,15.61
2024-03-11T11:57:06.068Z,15.76
2024-03-11T11:59:39.267Z,15.82
2024-03-11T12:02:07.565Z,15.87
2024-03-11T12:04:37.004Z,15.87
2024-03-11T12:07:05.350Z,15.91
2024-03-11T12:09:35.509Z,15.94
2024-03-11T12:12:02.547Z,15.86
2024-03-11T12:14:32.781Z,15.91
2024-03-11T12:17:08.877Z,15.94
2024-03-11T12:19:37.149Z,15.95
2024-03-11T12:22:05.789Z,15.98
2024-03-11T12:24:32.956Z,15.94
2024-03-11T12:27:00.033Z,15.99
2024-03-11T12:29:26.844Z,15.96
2024-03-11T12:31:56.677Z,15.94
2024-03-11T12:34:27.102Z,15.94
2024-03-11T12:36:56.266Z,15.88
2024-03-11T12:39:35.187Z,15.96
2024-03-11T12:42:01.923Z,15.89
2024-03-11T12:44:28.730Z,15.78
2024-03-11T12:46:57.254Z,15.80
2024-03-11T12:49:25.953Z,15.65
2024-03-11T12:52:10.088Z,15.77
2024-03-11T12:54:38.813Z,15.76
2024-03-11T12:57:13.858Z,15.78
2024-03-11T12:59:42.703Z,15.76
2024-03-11T13:02:10.723Z,15.78
2024-03-11T13:04:38.213Z,15.75
2024-03-11T13:07:10.476Z,15.73
2024-03-11T13:09:37.446Z,15.76
2024-03-11T13:12:05.034Z,15.78
2024-03-11T13:14:31.967Z,15.73
2024-03-11T13:16:58.477Z,15.74
2024-03-11T13:19:28.404Z,15.64
2024-03-11T13:21:56.624Z,15.66
2024-03-11T13:24:34.010Z,15.62
2024-03-11T13:27:00.617Z,15.65
2024-03-11T13:29:27.133Z,15.71
2024-03-11T13:31:54.271Z,15.71
2024-03-11T13:34:23.128Z,15.81
2024-03-11T13:36:51.762Z,15.78
2024-03-11T13:39:19.152Z,15.87
2024-03-11T13:41:48.268Z,15.83
2024-03-11T13:44:21.519Z,15.83
2024-03-11T13:46:49.691Z,15.92
2024-03-11T13:49:19.894Z,15.90
2024-03-11T13:51:46.462Z,15.95
2024-03-11T13:54:13.057Z,15.98
2024-03-11T13:56:40.971Z,15.97
2024-03-11T13:59:07.568Z,15.94
2024-03-11T14:01:34.185Z,15.93
2024-03-11T14:04:00.815Z,15.88
2024-03-11T14:06:29.121Z,15.89
2024-03-11T14:08:56.169Z,15.79
2024-03-11T14:11:22.846Z,15.81
2024-03-11T14:13:49.454Z,15.69
2024-03-11T14:16:16.298Z,15.75
2024-03-11T14:18:43.910Z,15.70
2024-03-11T14:21:10.598Z,15.74
2024-03-11T14:23:37.619Z,15.72
2024-03-11T14:26:04.927Z,15.72
2024-03-11T14:28:34.622Z,15.66
2024-03-11T14:31:04.184Z,15.69
2024-03-11T14:33:31.198Z,15.69
2024-03-11T14:35:57.958Z,15.70
2024-03-11T14:38:24.700Z,15.58
2024-03-11T14:40:51.980Z,15.63
2024-03-11T14:43:19.821Z,15.63
2024-03-11T14:45:49.187Z,15.68
2024-03-11T14:48:18.091Z,15.66
2024-03-11T14:50:46.665Z,15.64
2024-03-11T14:53:15.245Z,15.62
2024-03-11T14:55:43.502Z,15.68
2024-03-11T14:58:14.100Z,15.63
2024-03-11T15:00:50.941Z,15.66
2024-03-11T15:03:21.615Z,15.61
2024-03-11T15:05:49.164Z,15.66
2024-03-11T15:08:20.870Z,15.64
2024-03-11T15:10:48.156Z,15.61
2024-03-11T15:13:17.891Z,15.51
2024-03-11T15:15:48.344Z,15.51
2024-03-11T15:18:18.499Z,15.48
2024-03-11T15:20:49.969Z,15.51
2024-03-11T15:23:24.320Z,15.48
2024-03-11T15:25:54.492Z,15.49
2024-03-11T15:28:21.577Z,15.51
2024-03-11T15:30:48.580Z,15.48
2024-03-11T15:33:17.202Z,15.47
2024-03-11T15:35:43.868Z,15.40
2024-03-11T15:38:13.062Z,15.43
2024-03-11T15:40:42.480Z,15.43
2024-03-11T15:43:09.680Z,15.44
2024-03-11T15:45:38.192Z,15.43
2024-03-11T15:48:05.617Z,15.44
2024-03-11T15:50:35.686Z,15.44
2024-03-11T15:53:03.402Z,15.43
2024-03-11T15:55:30.160Z,15.40
2024-03-11T15:58:04.803Z,15.45
2024-03-11T16:00:37.318Z,15.46
2024-03-11T16:03:08.297Z,15.42
2024-03-11T16:05:38.964Z,15.37
2024-03-11T16:08:07.025Z,15.35
2024-03-11T16:10:33.525Z,15.34
2024-03-11T16:13:00.172Z,15.37
2024-03-11T16:15:28.281Z,15.35
2024-03-11T16:17:55.699Z,15.29
2024-03-11T16:20:25.494Z,15.33
2024-03-11T16:22:54.364Z,15.28
2024-03-11T16:25:22.390Z,15.27
2024-03-11T16:27:51.514Z,15.28
2024-03-11T16:30:23.968Z,15.21
2024-03-11T16:32:53.509Z,15.26
2024-03-11T16:35:28.738Z,15.15
2024-03-11T16:37:59.644Z,15.18
2024-03-11T16:40:28.033Z,15.12
2024-03-11T16:43:02.256Z,15.09
2024-03-11T16:45:28.947Z,15.09
2024-03-11T16:47:58.642Z,14.97
2024-03-11T16:50:25.629Z,15.01
2024-03-11T16:52:54.274Z,15.00
2024-03-11T16:55:32.452Z,14.98
2024-03-11T16:58:00.646Z,14.96
2024-03-11T17:00:37.255Z,14.91
2024-03-11T17:03:04.419Z,14.85
2024-03-11T17:05:31.953Z,14.79
2024-03-11T17:07:59.084Z,14.74
2024-03-11T17:10:33.141Z,14.76
2024-03-11T17:13:05.037Z,14.78
2024-03-11T17:15:35.644Z,14.77
2024-03-11T17:18:02.856Z,14.73
2024-03-11T17:20:40.489Z,14.72
2024-03-11T17:23:09.770Z,14.72
2024-03-11T17:25:37.709Z,14.69
2024-03-11T17:28:07.496Z,14.70
2024-03-11T17:30:35.836Z,14.65
2024-03-11T17:33:15.490Z,14.57
2024-03-11T17:35:46.924Z,14.51
2024-03-11T17:38:14.596Z,14.54
2024-03-11T17:40:45.042Z,14.53
2024-03-11T17:43:14.797Z,14.58
2024-03-11T17:45:45.290Z,14.57
2024-03-11T17:48:17.078Z,14.54
2024-03-11T17:50:44.512Z,14.56
2024-03-11T17:53:14.472Z,14.45
2024-03-11T17:55:45.038Z,14.46
2024-03-11T17:58:12.478Z,14.48
2024-03-11T18:00:41.450Z,14.48
2024-03-11T18:03:10.996Z,14.52
2024-03-11T18:05:38.125Z,14.55
2024-03-11T18:08:07.597Z,14.51
2024-03-11T18:10:37.814Z,14.56
2024-03-11T18:13:12.553Z,14.58
2024-03-11T18:15:42.556Z,14.48
2024-03-11T18:18:14.525Z,14.45
2024-03-11T18:20:42.386Z,14.46
2024-03-11T18:23:15.169Z,14.49
2024-03-11T18:25:47.937Z,14.47
2024-03-11T18:28:14.687Z,14.39
2024-03-11T18:30:42.736Z,14.48
2024-03-11T18:33:09.756Z,14.47
2024-03-11T18:35:36.912Z,14.53
2024-03-11T18:38:07.812Z,14.55
2024-03-11T18:40:35.695Z,14.53
2024-03-11T18:43:05.804Z,14.53
2024-03-11T18:45:33.975Z,14.52
2024-03-11T18:48:02.100Z,14.56
2024-03-11T18:50:31.942Z,14.56
2024-03-11T18:53:01.564Z,14.53
2024-03-11T18:55:33.511Z,14.55
2024-03-11T18:58:02.065Z,14.50
2024-03-11T19:00:31.343Z,14.54
2024-03-11T19:03:00.139Z,14.50
2024-03-11T19:05:27.497Z,14.53
2024-03-11T19:07:55.532Z,14.46
2024-03-11T19:10:27.818Z,14.54
2024-03-11T19:12:55.530Z,14.56
2024-03-11T19:15:25.542Z,14.56
2024-03-11T19:17:53.132Z,14.52
2024-03-11T19:20:24.680Z,14.47
2024-03-11T19:22:56.351Z,14.53
2024-03-11T19:25:30.591Z,14.49
2024-03-11T19:27:58.726Z,14.53
2024-03-11T19:30:29.636Z,14.54
2024-03-11T19:32:58.328Z,14.51
2024-03-11T19:35:26.671Z,14.48
2024-03-11T19:38:16.127Z,14.47
2024-03-11T19:41:03.930Z,14.48
2024-03-11T19:43:44.546Z,14.48
2024-03-11T19:46:33.394Z,14.47
2024-03-11T19:49:33.786Z,14.43
2024-03-11T19:52:44.432Z,14.40
2024-03-11T19:55:49.268Z,14.38
2024-03-11T19:58:22.544Z,14.36
2024-03-11T20:01:12.966Z,14.35
2024-03-11T20:04:04.479Z,14.36
2024-03-11T20:07:06.256Z,14.35
2024-03-11T20:10:01.983Z,14.34
2024-03-11T20:12:49.503Z,14.29
2024-03-11T20:15:39.012Z,14.31
2024-03-11T20:18:39.916Z,14.30
2024-03-11T20:21:25.204Z,14.28
2024-03-11T20:24:33.687Z,14.29
2024-03-11T20:27:25.576Z,14.28
2024-03-11T20:30:00.390Z,14.25
2024-03-11T20:32:27.055Z,14.24
2024-03-11T20:34:55.425Z,14.24
2024-03-11T20:37:22.231Z,14.27
2024-03-11T20:39:48.830Z,14.28
2024-03-11T20:42:17.223Z,14.29
2024-03-11T20:44:43.789Z,14.27
2024-03-11T20:47:10.280Z,14.30
2024-03-11T20:49:37.048Z,14.32
2024-03-11T20:52:03.802Z,14.33
2024-03-11T20:54:32.916Z,14.31
2024-03-11T20:57:00.803Z,14.25
2024-03-11T20:59:27.554Z,14.31
2024-03-11T21:01:54.153Z,14.27
2024-03-11T21:04:20.803Z,14.26
2024-03-11T21:06:48.160Z,14.23
2024-03-11T21:09:14.858Z,14.28
2024-03-11T21:11:42.389Z,14.24
2024-03-11T21:14:09.988Z,14.28
2024-03-11T21:16:36.573Z,14.25
2024-03-11T21:19:10.185Z,14.30
2024-03-11T21:22:06.465Z,14.24
2024-03-11T21:24:48.194Z,14.24
2024-03-11T21:27:24.822Z,14.18
2024-03-11T21:29:55.379Z,14.24
2024-03-11T21:32:25.704Z,14.24
2024-03-11T21:34:54.957Z,14.23
2024-03-11T21:37:21.595Z,14.24
2024-03-11T21:39:54.522Z,14.26
2024-03-11T21:42:22.287Z,14.13
2024-03-11T21:44:50.044Z,14.23
2024-03-11T21:47:23.935Z,14.25
2024-03-11T21:49:51.009Z,14.25
2024-03-11T21:52:18.741Z,14.24
2024-03-11T21:54:47.358Z,14.23
2024-03-11T21:57:14.282Z,14.22
2024-03-11T21:59:47.369Z,14.18
2024-03-11T22:02:16.184Z,14.19
2024-03-11T22:04:43.029Z,14.19
2024-03-11T22:07:12.734Z,14.21
2024-03-11T22:09:40.235Z,14.19
2024-03-11T22:12:08.803Z,14.19
2024-03-11T22:14:38.413Z,14.16
2024-03-11T22:17:08.972Z,14.11
2024-03-11T22:19:35.648Z,14.15
2024-03-11T22:22:04.803Z,14.12
2024-03-11T22:24:32.028Z,14.12
2024-03-11T22:27:04.171Z,14.10
2024-03-11T22:29:35.211Z,14.12
2024-03-11T22:32:01.785Z,14.12
2024-03-11T22:34:28.423Z,14.11
2024-03-11T22:36:56.102Z,14.05
2024-03-11T22:39:24.423Z,14.07
2024-03-11T22:41:51.907Z,14.09
2024-03-11T22:44:19.014Z,14.07
2024-03-11T22:46:45.819Z,14.03
2024-03-11T22:49:14.438Z,14.01
2024-03-11T22:51:44.006Z,13.98
2024-03-11T22:54:10.935Z,13.96
2024-03-11T22:56:38.582Z,13.91
2024-03-11T22:59:05.750Z,13.88
2024-03-11T23:01:34.815Z,13.83
2024-03-11T23:04:06.041Z,13.73
2024-03-11T23:06:34.082Z,13.77
2024-03-11T23:09:01.007Z,13.68
2024-03-11T23:11:27.901Z,13.69
2024-03-11T23:13:54.647Z,13.67
2024-03-11T23:16:22.201Z,13.62
2024-03-11T23:18:51.486Z,13.55
2024-03-11T23:21:18.513Z,13.55
2024-03-11T23:23:46.813Z,13.52
2024-03-11T23:26:14.400Z,13.51
2024-03-11T23:28:41.832Z,13.38
2024-03-11T23:31:10.655Z,13.37
2024-03-11T23:33:37.809Z,13.35
2024-03-11T23:36:04.802Z,13.32
2024-03-11T23:38:34.150Z,13.31
2024-03-11T23:41:00.734Z,13.32
2024-03-11T23:43:27.346Z,13.31
2024-03-11T23:45:55.436Z,13.29
2024-03-11T23:48:26.325Z,13.26
2024-03-11T23:50:56.748Z,13.23
2024-03-11T23:53:26.448Z,13.22
2024-03-11T23:56:00.135Z,13.16
2024-03-11T23:58:33.336Z,13.06
